createdAt,value
2019-02-16T00:00:28.923Z,102540.22
2019-02-16T00:03:01.399Z,102529.05
2019-02-16T00:05:32.743Z,102529.05
2019-02-16T00:08:04.022Z,102523.59
2019-02-16T00:10:34.772Z,102526.89
2019-02-16T00:13:05.841Z,102531.83
2019-02-16T00:15:36.779Z,102515.02
2019-02-16T00:18:07.649Z,102531.45
2019-02-16T00:20:39.219Z,102534.92
2019-02-16T00:23:10.303Z,102536.58
2019-02-16T00:25:41.032Z,102531.45
2019-02-16T00:28:12.079Z,102529.06
2019-02-16T00:30:43.352Z,102529.06
2019-02-16T00:33:14.401Z,102535.84
2019-02-16T00:35:45.929Z,102536.58
2019-02-16T00:38:16.804Z,102534.56
2019-02-16T00:40:47.695Z,102535.10
2019-02-16T00:43:18.732Z,102537.83
2019-02-16T00:45:50.012Z,102536.21
2019-02-16T00:48:21.187Z,102534.19
2019-02-16T00:50:52.089Z,102530.89
2019-02-16T00:53:24.154Z,102528.87
2019-02-16T00:55:56.063Z,102524.11
2019-02-16T00:58:27.144Z,102522.30
2019-02-16T01:00:58.414Z,102517.18
2019-02-16T01:03:29.340Z,102517.55
2019-02-16T01:06:00.918Z,102507.31
2019-02-16T01:08:32.540Z,102506.73
2019-02-16T01:11:03.399Z,102517.55
2019-02-16T01:13:34.255Z,102512.43
2019-02-16T01:16:05.283Z,102512.80
2019-02-16T01:18:36.456Z,102507.85
2019-02-16T01:21:08.008Z,102504.58
2019-02-16T01:23:39.606Z,102495.98
2019-02-16T01:26:10.623Z,102497.43
2019-02-16T01:28:41.442Z,102502.02
2019-02-16T01:31:12.575Z,102496.70
2019-02-16T01:33:45.600Z,102490.47
2019-02-16T01:36:17.103Z,102499.62
2019-02-16T01:38:48.038Z,102486.25
2019-02-16T01:41:18.891Z,102491.20
2019-02-16T01:43:49.686Z,102481.13
2019-02-16T01:46:20.421Z,102483.53
2019-02-16T01:48:51.690Z,102478.24
2019-02-16T01:51:31.436Z,102473.30
2019-02-16T01:53:55.619Z,102468.70
2019-02-16T01:56:26.448Z,102462.85
2019-02-16T01:58:57.159Z,102463.42
2019-02-16T02:01:28.405Z,102460.49
2019-02-16T02:03:59.437Z,102454.63
2019-02-16T02:06:30.779Z,102454.09
2019-02-16T02:09:01.382Z,102456.82
2019-02-16T02:11:33.764Z,102449.52
2019-02-16T02:14:04.754Z,102445.67
2019-02-16T02:16:35.784Z,102440.72
2019-02-16T02:19:06.751Z,102442.38
2019-02-16T02:21:41.142Z,102441.79
2019-02-16T02:24:10.643Z,102436.67
2019-02-16T02:26:41.639Z,102437.62
2019-02-16T02:29:12.697Z,102425.91
2019-02-16T02:31:44.059Z,102426.28
2019-02-16T02:34:15.300Z,102431.22
2019-02-16T02:36:46.524Z,102434.69
2019-02-16T02:39:17.291Z,102431.02
2019-02-16T02:41:47.940Z,102428.30
2019-02-16T02:44:19.313Z,102420.78
2019-02-16T02:46:50.322Z,102419.34
2019-02-16T02:49:21.235Z,102414.97
2019-02-16T02:51:52.627Z,102412.20
2019-02-16T02:54:23.493Z,102410.19
2019-02-16T02:56:54.253Z,102403.25
2019-02-16T02:59:25.327Z,102397.55
2019-02-16T03:01:56.380Z,102398.30
2019-02-16T03:04:27.194Z,102395.37
2019-02-16T03:06:58.157Z,102400.48
2019-02-16T03:09:28.917Z,102404.53
2019-02-16T03:11:59.779Z,102403.25
2019-02-16T03:14:30.861Z,102396.48
2019-02-16T03:17:01.450Z,102398.12
2019-02-16T03:19:32.153Z,102393.55
2019-02-16T03:22:03.494Z,102393.38
2019-02-16T03:24:34.701Z,102395.00
2019-02-16T03:27:08.631Z,102402.66
2019-02-16T03:29:42.807Z,102401.01
2019-02-16T03:32:14.794Z,102397.55
2019-02-16T03:34:48.673Z,102401.59
2019-02-16T03:37:22.681Z,102394.47
2019-02-16T03:39:53.598Z,102396.12
2019-02-16T03:42:24.737Z,102391.20
2019-02-16T03:44:55.915Z,102395.20
2019-02-16T03:47:26.871Z,102397.77
2019-02-16T03:49:57.792Z,102397.77
2019-02-16T03:52:28.715Z,102391.20
2019-02-16T03:54:59.696Z,102388.07
2019-02-16T03:57:30.789Z,102393.76
2019-02-16T04:00:01.818Z,102382.78
2019-02-16T04:02:34.304Z,102386.25
2019-02-16T04:05:06.129Z,102395.58
2019-02-16T04:07:37.576Z,102388.07
2019-02-16T04:10:08.175Z,102390.45
2019-02-16T04:12:38.921Z,102387.53
2019-02-16T04:15:10.338Z,102381.88
2019-02-16T04:17:40.915Z,102384.77
2019-02-16T04:20:12.272Z,102377.45
2019-02-16T04:22:43.253Z,102374.73
2019-02-16T04:25:14.255Z,102369.95
2019-02-16T04:27:45.097Z,102376.34
2019-02-16T04:30:16.013Z,102367.23
2019-02-16T04:32:47.120Z,102363.56
2019-02-16T04:35:18.158Z,102366.12
2019-02-16T04:37:48.727Z,102361.20
2019-02-16T04:40:19.834Z,102361.38
2019-02-16T04:42:50.721Z,102360.83
2019-02-16T04:45:22.157Z,102365.57
2019-02-16T04:47:53.644Z,102357.36
2019-02-16T04:50:24.746Z,102357.70
2019-02-16T04:52:55.765Z,102355.50
2019-02-16T04:55:26.956Z,102351.30
2019-02-16T04:57:58.176Z,102358.64
2019-02-16T05:00:29.441Z,102347.67
2019-02-16T05:02:59.873Z,102348.42
2019-02-16T05:05:30.802Z,102338.36
2019-02-16T05:08:01.904Z,102333.83
2019-02-16T05:10:33.076Z,102332.34
2019-02-16T05:13:04.342Z,102334.53
2019-02-16T05:15:35.240Z,102327.06
2019-02-16T05:18:06.493Z,102328.14
2019-02-16T05:20:37.085Z,102325.20
2019-02-16T05:23:07.501Z,102328.70
2019-02-16T05:25:38.856Z,102326.86
2019-02-16T05:28:10.240Z,102328.87
2019-02-16T05:30:41.409Z,102332.17
2019-02-16T05:33:12.303Z,102329.41
2019-02-16T05:35:43.308Z,102328.34
2019-02-16T05:38:14.897Z,102321.20
2019-02-16T05:40:45.677Z,102322.27
2019-02-16T05:43:16.567Z,102323.02
2019-02-16T05:45:47.659Z,102321.00
2019-02-16T05:48:18.588Z,102314.81
2019-02-16T05:50:49.908Z,102322.10
2019-02-16T05:53:20.613Z,102323.91
2019-02-16T05:55:51.616Z,102324.64
2019-02-16T05:58:22.937Z,102329.77
2019-02-16T06:00:54.040Z,102328.48
2019-02-16T06:03:25.763Z,102331.58
2019-02-16T06:05:56.838Z,102333.92
2019-02-16T06:08:28.479Z,102338.87
2019-02-16T06:10:59.584Z,102332.64
2019-02-16T06:13:30.630Z,102327.36
2019-02-16T06:16:01.760Z,102334.28
2019-02-16T06:18:33.347Z,102331.19
2019-02-16T06:21:04.090Z,102331.92
2019-02-16T06:23:35.596Z,102335.39
2019-02-16T06:26:06.542Z,102333.38
2019-02-16T06:28:37.417Z,102337.03
2019-02-16T06:31:08.645Z,102339.59
2019-02-16T06:33:39.398Z,102334.66
2019-02-16T06:36:12.201Z,102334.27
2019-02-16T06:38:43.260Z,102335.39
2019-02-16T06:41:14.371Z,102330.66
2019-02-16T06:43:45.590Z,102334.13
2019-02-16T06:46:16.853Z,102323.91
2019-02-16T06:48:47.811Z,102335.95
2019-02-16T06:51:19.639Z,102338.14
2019-02-16T06:53:50.417Z,102336.91
2019-02-16T06:56:22.936Z,102338.73
2019-02-16T06:58:54.167Z,102333.08
2019-02-16T07:01:26.459Z,102339.64
2019-02-16T07:03:57.571Z,102338.56
2019-02-16T07:06:28.638Z,102345.87
2019-02-16T07:09:01.062Z,102337.28
2019-02-16T07:11:33.498Z,102342.39
2019-02-16T07:14:04.253Z,102339.48
2019-02-16T07:16:37.613Z,102336.75
2019-02-16T07:19:10.292Z,102334.36
2019-02-16T07:21:41.351Z,102341.33
2019-02-16T07:24:12.198Z,102336.58
2019-02-16T07:26:44.820Z,102335.29
2019-02-16T07:29:18.481Z,102332.90
2019-02-16T07:31:49.409Z,102325.22
2019-02-16T07:34:20.604Z,102322.86
2019-02-16T07:36:51.747Z,102318.11
2019-02-16T07:39:23.726Z,102305.83
2019-02-16T07:41:57.347Z,102308.75
2019-02-16T07:44:30.447Z,102310.02
2019-02-16T07:47:03.027Z,102307.27
2019-02-16T07:49:35.768Z,102306.51
2019-02-16T07:52:08.449Z,102300.66
2019-02-16T07:54:40.711Z,102299.91
2019-02-16T07:57:13.680Z,102298.06
2019-02-16T07:59:46.216Z,102296.95
2019-02-16T08:02:18.480Z,102297.84
2019-02-16T08:04:50.636Z,102294.52
2019-02-16T08:07:22.901Z,102300.55
2019-02-16T08:09:56.224Z,102297.38
2019-02-16T08:12:28.571Z,102292.59
2019-02-16T08:15:00.844Z,102285.60
2019-02-16T08:17:33.292Z,102284.49
2019-02-16T08:20:06.699Z,102280.95
2019-02-16T08:22:38.932Z,102286.59
2019-02-16T08:25:11.611Z,102283.26
2019-02-16T08:27:43.719Z,102282.30
2019-02-16T08:30:15.812Z,102278.02
2019-02-16T08:32:48.291Z,102278.88
2019-02-16T08:35:20.444Z,102277.00
2019-02-16T08:37:52.813Z,102275.27
2019-02-16T08:40:25.611Z,102267.52
2019-02-16T08:42:57.602Z,102270.23
2019-02-16T08:45:29.764Z,102260.81
2019-02-16T08:48:02.203Z,102266.78
2019-02-16T08:50:34.854Z,102268.47
2019-02-16T08:53:07.412Z,102262.31
2019-02-16T08:55:39.930Z,102260.67
2019-02-16T08:58:12.492Z,102257.25
2019-02-16T09:00:45.258Z,102259.49
2019-02-16T09:03:18.652Z,102262.40
2019-02-16T09:05:51.060Z,102262.58
2019-02-16T09:08:24.876Z,102254.13
2019-02-16T09:10:58.773Z,102251.52
2019-02-16T09:13:30.932Z,102246.22
2019-02-16T09:16:03.172Z,102251.69
2019-02-16T09:18:35.699Z,102250.54
2019-02-16T09:21:14.400Z,102249.88
2019-02-16T09:23:41.931Z,102245.38
2019-02-16T09:26:14.330Z,102254.05
2019-02-16T09:28:46.882Z,102240.23
2019-02-16T09:31:19.212Z,102238.89
2019-02-16T09:33:51.531Z,102235.48
2019-02-16T09:36:23.939Z,102234.20
2019-02-16T09:38:56.460Z,102225.23
2019-02-16T09:41:28.832Z,102227.81
2019-02-16T09:44:01.272Z,102218.75
2019-02-16T09:46:33.608Z,102220.58
2019-02-16T09:49:07.671Z,102212.55
2019-02-16T09:51:40.030Z,102205.88
2019-02-16T09:54:12.033Z,102205.79
2019-02-16T09:56:44.672Z,102209.81
2019-02-16T09:59:16.968Z,102204.86
2019-02-16T10:01:49.390Z,102203.83
2019-02-16T10:04:21.380Z,102200.88
2019-02-16T10:06:53.780Z,102199.30
2019-02-16T10:09:26.139Z,102195.17
2019-02-16T10:11:58.832Z,102187.73
2019-02-16T10:14:30.951Z,102178.87
2019-02-16T10:17:01.792Z,102179.03
2019-02-16T10:19:34.673Z,102181.83
2019-02-16T10:22:08.482Z,102175.39
2019-02-16T10:24:41.155Z,102169.56
2019-02-16T10:27:13.409Z,102164.25
2019-02-16T10:29:46.034Z,102156.23
2019-02-16T10:32:18.387Z,102153.99
2019-02-16T10:34:50.604Z,102153.31
2019-02-16T10:37:23.514Z,102142.77
2019-02-16T10:39:56.460Z,102141.53
2019-02-16T10:42:29.336Z,102133.59
2019-02-16T10:45:02.172Z,102129.77
2019-02-16T10:47:34.880Z,102126.70
2019-02-16T10:50:09.076Z,102114.84
2019-02-16T10:52:42.268Z,102110.05
2019-02-16T10:55:14.974Z,102107.83
2019-02-16T10:57:45.899Z,102104.28
2019-02-16T11:00:19.121Z,102098.64
2019-02-16T11:02:51.957Z,102092.42
2019-02-16T11:05:24.572Z,102100.11
2019-02-16T11:07:57.237Z,102094.23
2019-02-16T11:10:30.178Z,102094.29
2019-02-16T11:13:03.323Z,102087.89
2019-02-16T11:15:36.074Z,102085.52
2019-02-16T11:18:07.400Z,102078.63
2019-02-16T11:20:40.210Z,102068.63
2019-02-16T11:23:12.724Z,102065.36
2019-02-16T11:25:45.758Z,102069.51
2019-02-16T11:28:18.493Z,102067.63
2019-02-16T11:30:51.488Z,102060.64
2019-02-16T11:33:33.143Z,102058.17
2019-02-16T11:36:09.596Z,102058.56
2019-02-16T11:38:43.076Z,102053.73
2019-02-16T11:41:18.845Z,102053.45
2019-02-16T11:43:51.414Z,102050.70
2019-02-16T11:46:25.304Z,102050.28
2019-02-16T11:48:58.100Z,102040.86
2019-02-16T11:51:30.998Z,102043.83
2019-02-16T11:54:03.436Z,102040.21
2019-02-16T11:56:37.293Z,102033.05
2019-02-16T11:59:09.764Z,102043.03
2019-02-16T12:01:42.212Z,102033.95
2019-02-16T12:04:17.180Z,102029.20
2019-02-16T12:06:50.136Z,102028.50
2019-02-16T12:09:23.038Z,102026.66
2019-02-16T12:11:57.593Z,102014.38
2019-02-16T12:14:30.555Z,102014.55
2019-02-16T12:17:03.172Z,102013.08
2019-02-16T12:19:35.880Z,102012.59
2019-02-16T12:22:08.434Z,101995.64
2019-02-16T12:24:40.914Z,101994.20
2019-02-16T12:27:13.511Z,101997.06
2019-02-16T12:29:46.486Z,101989.14
2019-02-16T12:32:21.197Z,101987.42
2019-02-16T12:34:53.300Z,101985.31
2019-02-16T12:37:25.906Z,101976.97
2019-02-16T12:39:59.318Z,101982.37
2019-02-16T12:42:31.559Z,101974.95
2019-02-16T12:45:04.497Z,101982.00
2019-02-16T12:47:37.080Z,101980.95
2019-02-16T12:50:09.408Z,101967.88
2019-02-16T12:52:41.831Z,101973.61
2019-02-16T12:55:15.111Z,101972.78
2019-02-16T12:57:47.743Z,101961.09
2019-02-16T13:00:21.024Z,101961.41
2019-02-16T13:02:53.955Z,101948.70
2019-02-16T13:05:26.654Z,101953.95
2019-02-16T13:07:59.048Z,101944.09
2019-02-16T13:10:31.542Z,101940.53
2019-02-16T13:13:05.852Z,101944.14
2019-02-16T13:15:38.323Z,101940.06
2019-02-16T13:18:10.498Z,101938.11
2019-02-16T13:20:43.553Z,101930.50
2019-02-16T13:23:16.343Z,101934.05
2019-02-16T13:25:48.624Z,101938.95
2019-02-16T13:28:21.016Z,101933.38
2019-02-16T13:30:53.503Z,101927.72
2019-02-16T13:33:26.563Z,101927.41
2019-02-16T13:35:59.283Z,101924.05
2019-02-16T13:38:31.927Z,101924.63
2019-02-16T13:41:04.547Z,101920.52
2019-02-16T13:43:36.732Z,101919.47
2019-02-16T13:46:09.067Z,101921.19
2019-02-16T13:48:41.669Z,101914.32
2019-02-16T13:51:14.313Z,101919.62
2019-02-16T13:53:46.955Z,101909.88
2019-02-16T13:56:17.470Z,101907.73
2019-02-16T13:58:50.030Z,101906.27
2019-02-16T14:01:22.346Z,101903.70
2019-02-16T14:03:55.133Z,101893.88
2019-02-16T14:06:28.636Z,101895.45
2019-02-16T14:09:01.540Z,101893.05
2019-02-16T14:11:35.397Z,101888.63
2019-02-16T14:14:08.459Z,101884.19
2019-02-16T14:16:40.950Z,101876.42
2019-02-16T14:19:12.231Z,101872.02
2019-02-16T14:21:44.988Z,101877.32
2019-02-16T14:24:17.675Z,101868.50
2019-02-16T14:26:49.253Z,101868.75
2019-02-16T14:29:20.217Z,101864.67
2019-02-16T14:31:51.649Z,101854.17
2019-02-16T14:34:23.580Z,101855.02
2019-02-16T14:36:54.782Z,101854.70
2019-02-16T14:39:30.601Z,101851.18
2019-02-16T14:42:01.599Z,101848.33
2019-02-16T14:44:32.517Z,101851.27
2019-02-16T14:47:04.096Z,101843.25
2019-02-16T14:49:35.186Z,101836.48
2019-02-16T14:52:06.710Z,101839.00
2019-02-16T14:54:38.105Z,101824.20
2019-02-16T14:57:12.439Z,101823.97
2019-02-16T14:59:43.629Z,101825.92
2019-02-16T15:02:15.350Z,101823.07
2019-02-16T15:04:46.557Z,101825.63
2019-02-16T15:07:17.593Z,101830.34
2019-02-16T15:09:48.567Z,101826.77
2019-02-16T15:12:19.739Z,101825.53
2019-02-16T15:14:50.470Z,101820.37
2019-02-16T15:17:22.751Z,101816.53
2019-02-16T15:19:53.503Z,101813.75
2019-02-16T15:22:24.749Z,101817.92
2019-02-16T15:24:55.439Z,101805.39
2019-02-16T15:27:26.591Z,101798.55
2019-02-16T15:29:57.310Z,101795.50
2019-02-16T15:32:28.189Z,101802.27
2019-02-16T15:34:59.512Z,101806.92
2019-02-16T15:37:31.258Z,101810.23
2019-02-16T15:40:01.750Z,101811.02
2019-02-16T15:42:33.822Z,101827.23
2019-02-16T15:45:07.589Z,101831.84
2019-02-16T15:47:38.632Z,101830.20
2019-02-16T15:50:11.525Z,101821.91
2019-02-16T15:52:42.504Z,101817.39
2019-02-16T15:55:13.472Z,101809.61
2019-02-16T15:57:44.230Z,101793.03
2019-02-16T16:00:17.761Z,101798.47
2019-02-16T16:02:49.075Z,101797.95
2019-02-16T16:05:20.277Z,101802.28
2019-02-16T16:07:53.070Z,101804.00
2019-02-16T16:10:25.431Z,101801.52
2019-02-16T16:12:58.494Z,101802.58
2019-02-16T16:15:31.166Z,101802.34
2019-02-16T16:18:03.356Z,101805.19
2019-02-16T16:20:35.982Z,101807.91
2019-02-16T16:23:08.708Z,101812.81
2019-02-16T16:25:41.429Z,101809.92
2019-02-16T16:28:13.951Z,101813.69
2019-02-16T16:30:46.271Z,101806.34
2019-02-16T16:33:18.463Z,101805.47
2019-02-16T16:35:50.589Z,101806.67
2019-02-16T16:38:22.631Z,101805.68
2019-02-16T16:40:54.918Z,101807.23
2019-02-16T16:43:27.456Z,101815.91
2019-02-16T16:45:59.816Z,101811.77
2019-02-16T16:48:32.144Z,101807.75
2019-02-16T16:51:04.537Z,101814.57
2019-02-16T16:53:38.680Z,101819.06
2019-02-16T16:56:10.854Z,101822.25
2019-02-16T16:58:43.202Z,101823.47
2019-02-16T17:01:13.774Z,101825.09
2019-02-16T17:03:46.974Z,101831.56
2019-02-16T17:06:17.471Z,101828.01
2019-02-16T17:08:51.071Z,101819.75
2019-02-16T17:11:23.511Z,101825.91
2019-02-16T17:13:56.312Z,101823.87
2019-02-16T17:16:28.902Z,101816.55
2019-02-16T17:19:01.119Z,101822.69
2019-02-16T17:21:34.789Z,101822.21
2019-02-16T17:24:04.966Z,101826.69
2019-02-16T17:26:38.146Z,101820.06
2019-02-16T17:29:13.174Z,101821.41
2019-02-16T17:31:47.554Z,101822.35
2019-02-16T17:34:22.805Z,101821.49
2019-02-16T17:36:56.656Z,101824.88
2019-02-16T17:39:30.752Z,101819.33
2019-02-16T17:42:05.220Z,101814.19
2019-02-16T17:44:38.179Z,101822.45
2019-02-16T17:47:10.578Z,101815.11
2019-02-16T17:49:43.787Z,101814.72
2019-02-16T17:52:20.579Z,101817.86
2019-02-16T17:54:53.377Z,101818.36
2019-02-16T17:57:26.745Z,101823.41
2019-02-16T18:03:27.713Z,101819.02
2019-02-16T18:06:15.391Z,101823.28
2019-02-16T18:08:54.842Z,101824.84
2019-02-16T18:11:27.626Z,101819.14
2019-02-16T18:14:09.698Z,101818.73
2019-02-16T18:16:42.626Z,101827.27
2019-02-16T18:19:14.988Z,101821.20
2019-02-16T18:21:47.633Z,101820.02
2019-02-16T18:24:20.427Z,101813.84
2019-02-16T18:26:56.509Z,101824.43
2019-02-16T18:29:26.911Z,101820.16
2019-02-16T18:31:59.528Z,101824.31
2019-02-16T18:34:32.319Z,101822.39
2019-02-16T18:37:04.295Z,101820.48
2019-02-16T18:39:37.463Z,101819.19
2019-02-16T18:42:10.303Z,101817.75
2019-02-16T18:44:43.433Z,101822.10
2019-02-16T18:47:19.136Z,101825.91
2019-02-16T18:49:52.167Z,101818.42
2019-02-16T18:52:25.047Z,101821.66
2019-02-16T18:54:57.466Z,101816.83
2019-02-16T18:57:29.527Z,101820.87
2019-02-16T19:00:02.974Z,101817.48
2019-02-16T19:02:37.146Z,101820.06
2019-02-16T19:05:10.286Z,101822.27
2019-02-16T19:07:42.969Z,101820.06
2019-02-16T19:10:15.135Z,101818.27
2019-02-16T19:12:49.433Z,101814.28
2019-02-16T19:15:22.375Z,101822.66
2019-02-16T19:17:54.902Z,101820.63
2019-02-16T19:20:29.721Z,101819.62
2019-02-16T19:23:04.041Z,101824.19
2019-02-16T19:25:36.692Z,101814.30
2019-02-16T19:28:09.224Z,101813.25
2019-02-16T19:30:43.594Z,101814.93
2019-02-16T19:33:16.192Z,101814.28
2019-02-16T19:35:48.968Z,101817.63
2019-02-16T19:38:21.184Z,101816.83
2019-02-16T19:40:55.111Z,101825.80
2019-02-16T19:43:28.202Z,101818.06
2019-02-16T19:46:00.806Z,101823.44
2019-02-16T19:48:34.823Z,101816.31
2019-02-16T19:51:07.166Z,101819.73
2019-02-16T19:53:40.168Z,101813.00
2019-02-16T19:56:13.455Z,101814.46
2019-02-16T19:59:00.679Z,101814.77
2019-02-16T20:01:34.954Z,101824.84
2019-02-16T20:04:08.357Z,101824.81
2019-02-16T20:06:42.471Z,101823.02
2019-02-16T20:09:16.340Z,101812.27
2019-02-16T20:11:48.978Z,101819.25
2019-02-16T20:14:24.105Z,101817.45
2019-02-16T20:16:55.120Z,101816.14
2019-02-16T20:19:27.667Z,101817.69
2019-02-16T20:21:59.956Z,101821.55
2019-02-16T20:24:50.586Z,101819.30
2019-02-16T20:27:57.899Z,101815.39
2019-02-16T20:30:39.875Z,101814.07
2019-02-16T20:33:12.667Z,101823.86
2019-02-16T20:35:45.126Z,101821.08
2019-02-16T20:38:17.549Z,101816.03
2019-02-16T20:41:01.676Z,101829.52
2019-02-16T20:43:46.517Z,101827.38
2019-02-16T20:46:19.489Z,101825.36
2019-02-16T20:48:52.205Z,101828.70
2019-02-16T20:51:24.585Z,101830.31
2019-02-16T20:53:57.632Z,101835.88
2019-02-16T20:56:30.337Z,101833.60
2019-02-16T20:59:02.840Z,101831.64
2019-02-16T21:01:35.281Z,101836.44
2019-02-16T21:04:07.643Z,101832.97
2019-02-16T21:06:40.023Z,101833.67
2019-02-16T21:09:12.720Z,101836.92
2019-02-16T21:11:45.334Z,101846.27
2019-02-16T21:14:18.035Z,101839.18
2019-02-16T21:16:50.566Z,101846.65
2019-02-16T21:19:23.181Z,101847.81
2019-02-16T21:21:54.067Z,101847.64
2019-02-16T21:24:26.630Z,101847.22
2019-02-16T21:26:59.367Z,101844.54
2019-02-16T21:29:32.002Z,101848.13
2019-02-16T21:32:04.722Z,101845.25
2019-02-16T21:34:47.269Z,101848.26
2019-02-16T21:37:25.836Z,101848.70
2019-02-16T21:40:00.574Z,101841.15
2019-02-16T21:42:33.536Z,101846.84
2019-02-16T21:45:08.114Z,101849.12
2019-02-16T21:47:40.530Z,101847.70
2019-02-16T21:50:14.161Z,101843.30
2019-02-16T21:52:47.076Z,101849.89
2019-02-16T21:55:20.036Z,101851.56
2019-02-16T21:57:53.514Z,101848.55
2019-02-16T22:00:27.314Z,101852.02
2019-02-16T22:03:00.422Z,101849.91
2019-02-16T22:05:33.381Z,101851.66
2019-02-16T22:08:07.334Z,101864.21
2019-02-16T22:10:41.278Z,101864.13
2019-02-16T22:13:14.415Z,101860.87
2019-02-16T22:15:48.113Z,101857.55
2019-02-16T22:18:19.536Z,101862.31
2019-02-16T22:20:51.414Z,101860.64
2019-02-16T22:23:24.518Z,101856.27
2019-02-16T22:25:56.155Z,101857.84
2019-02-16T22:28:30.923Z,101851.41
2019-02-16T22:31:01.995Z,101855.06
2019-02-16T22:33:34.196Z,101854.00
2019-02-16T22:36:05.794Z,101852.80
2019-02-16T22:38:48.319Z,101856.03
2019-02-16T22:41:22.290Z,101860.27
2019-02-16T22:43:54.434Z,101855.27
2019-02-16T22:46:25.701Z,101857.50
2019-02-16T22:48:57.877Z,101860.42
2019-02-16T22:51:29.160Z,101862.60
2019-02-16T22:54:00.215Z,101856.14
2019-02-16T22:56:31.211Z,101860.76
2019-02-16T22:59:02.370Z,101861.03
2019-02-16T23:01:33.547Z,101859.34
2019-02-16T23:04:04.660Z,101858.05
2019-02-16T23:06:35.826Z,101855.77
2019-02-16T23:09:09.284Z,101857.33
2019-02-16T23:11:39.937Z,101844.83
2019-02-16T23:14:11.313Z,101858.44
2019-02-16T23:16:42.989Z,101865.44
2019-02-16T23:19:14.070Z,101863.52
2019-02-16T23:21:45.338Z,101865.39
2019-02-16T23:24:16.007Z,101860.27
2019-02-16T23:26:46.580Z,101861.48
2019-02-16T23:29:17.797Z,101865.41
2019-02-16T23:31:49.008Z,101854.34
2019-02-16T23:34:20.568Z,101857.37
2019-02-16T23:36:51.588Z,101856.79
2019-02-16T23:39:22.662Z,101866.36
2019-02-16T23:41:53.852Z,101860.20
2019-02-16T23:44:24.880Z,101855.44
2019-02-16T23:46:55.983Z,101853.66
2019-02-16T23:49:27.504Z,101845.23
2019-02-16T23:51:59.588Z,101848.21
2019-02-16T23:54:30.255Z,101856.21
2019-02-16T23:57:01.515Z,101856.21
2019-02-16T23:59:32.232Z,101854.42
